createdAt,value
2023-03-25T00:00:19.176Z,1.10
2023-03-25T00:02:49.276Z,1.00
2023-03-25T00:05:18.905Z,0.77
2023-03-25T00:07:48.227Z,1.00
2023-03-25T00:10:15.377Z,1.20
2023-03-25T00:12:42.624Z,0.77
2023-03-25T00:15:11.528Z,0.95
2023-03-25T00:17:38.573Z,1.00
2023-03-25T00:20:08.976Z,1.27
2023-03-25T00:22:40.690Z,0.98
2023-03-25T00:25:09.571Z,1.65
2023-03-25T00:27:36.674Z,1.30
2023-03-25T00:30:04.446Z,1.20
2023-03-25T00:32:31.275Z,0.80
2023-03-25T00:34:59.778Z,1.30
2023-03-25T00:37:27.104Z,0.85
2023-03-25T00:39:54.196Z,2.20
2023-03-25T00:42:26.232Z,1.30
2023-03-25T00:44:53.976Z,1.35
2023-03-25T00:47:22.380Z,1.40
2023-03-25T00:49:49.676Z,0.95
2023-03-25T00:52:16.647Z,1.25
2023-03-25T00:54:43.875Z,1.17
2023-03-25T00:57:10.681Z,1.45
2023-03-25T00:59:37.381Z,1.25
2023-03-25T01:02:06.945Z,1.67
2023-03-25T01:04:34.881Z,1.38
2023-03-25T01:07:03.399Z,1.00
2023-03-25T01:09:30.461Z,1.25
2023-03-25T01:11:57.396Z,1.13
2023-03-25T01:14:27.239Z,1.02
2023-03-25T01:16:54.681Z,0.98
2023-03-25T01:19:22.881Z,1.15
2023-03-25T01:21:49.723Z,1.00
2023-03-25T01:24:16.633Z,1.10
2023-03-25T01:26:45.664Z,1.52
2023-03-25T01:29:18.538Z,1.55
2023-03-25T01:31:45.500Z,1.67
2023-03-25T01:34:12.959Z,1.08
2023-03-25T01:36:39.937Z,1.58
2023-03-25T01:39:08.579Z,1.55
2023-03-25T01:41:49.059Z,1.40
2023-03-25T01:44:19.754Z,1.27
2023-03-25T01:46:53.310Z,1.40
2023-03-25T01:49:29.954Z,2.00
2023-03-25T01:51:59.583Z,1.20
2023-03-25T01:54:27.409Z,1.50
2023-03-25T01:56:54.996Z,2.15
2023-03-25T01:59:25.559Z,1.40
2023-03-25T02:01:53.759Z,2.28
2023-03-25T02:04:45.893Z,2.22
2023-03-25T02:07:16.330Z,1.63
2023-03-25T02:09:43.520Z,2.65
2023-03-25T02:12:10.193Z,2.25
2023-03-25T02:14:37.765Z,2.17
2023-03-25T02:17:22.104Z,1.90
2023-03-25T02:23:02.099Z,2.47
2023-03-25T02:25:51.752Z,2.00
2023-03-25T02:28:29.279Z,2.63
2023-03-25T02:31:32.270Z,2.30
2023-03-25T02:34:05.635Z,1.85
2023-03-25T02:37:04.436Z,2.05
2023-03-25T02:39:52.621Z,1.65
2023-03-25T02:42:37.123Z,1.27
2023-03-25T02:45:23.070Z,1.70
2023-03-25T02:47:59.912Z,2.17
2023-03-25T02:50:35.171Z,1.35
2023-03-25T02:53:08.717Z,1.73
2023-03-25T02:55:37.891Z,2.65
2023-03-25T02:58:09.208Z,1.55
2023-03-25T03:00:38.262Z,1.45
2023-03-25T03:03:06.806Z,1.30
2023-03-25T03:05:40.678Z,1.92
2023-03-25T03:08:30.393Z,1.38
2023-03-25T03:11:00.094Z,1.10
2023-03-25T03:13:29.808Z,2.03
2023-03-25T03:16:24.677Z,1.13
2023-03-25T03:19:05.800Z,1.70
2023-03-25T03:21:41.093Z,1.60
2023-03-25T03:24:19.650Z,1.77
2023-03-25T03:27:26.153Z,1.73
2023-03-25T03:30:06.390Z,1.40
2023-03-25T03:32:43.425Z,1.95
2023-03-25T03:35:20.731Z,2.13
2023-03-25T03:37:57.336Z,1.40
2023-03-25T03:40:26.903Z,1.60
2023-03-25T03:43:01.539Z,0.98
2023-03-25T03:45:34.022Z,1.75
2023-03-25T03:48:07.264Z,1.30
2023-03-25T03:50:40.908Z,1.30
2023-03-25T03:53:19.742Z,1.80
2023-03-25T03:55:52.313Z,1.35
2023-03-25T03:58:25.525Z,1.10
2023-03-25T04:01:03.170Z,1.65
2023-03-25T04:03:46.393Z,1.40
2023-03-25T04:06:36.414Z,1.80
2023-03-25T04:09:27.046Z,2.20
2023-03-25T04:12:07.379Z,1.58
2023-03-25T04:14:34.124Z,1.92
2023-03-25T04:17:00.775Z,1.60
2023-03-25T04:19:28.299Z,2.05
2023-03-25T04:21:54.988Z,1.35
2023-03-25T04:24:21.755Z,1.40
2023-03-25T04:26:49.655Z,1.50
2023-03-25T04:29:16.518Z,1.05
2023-03-25T04:31:46.222Z,1.48
2023-03-25T04:34:16.323Z,1.45
2023-03-25T04:36:43.559Z,1.20
2023-03-25T04:39:13.111Z,1.95
2023-03-25T04:41:39.985Z,1.55
2023-03-25T04:44:08.025Z,2.33
2023-03-25T04:46:36.573Z,2.40
2023-03-25T04:49:13.956Z,2.45
2023-03-25T04:51:44.965Z,2.95
2023-03-25T04:54:12.108Z,2.45
2023-03-25T04:56:39.772Z,2.22
2023-03-25T04:59:06.494Z,2.15
2023-03-25T05:01:37.832Z,2.10
2023-03-25T05:04:06.834Z,2.03
2023-03-25T05:06:35.122Z,1.73
2023-03-25T05:09:04.574Z,1.42
2023-03-25T05:11:32.774Z,1.83
2023-03-25T05:13:59.499Z,2.00
2023-03-25T05:16:26.650Z,1.67
2023-03-25T05:18:53.346Z,1.40
2023-03-25T05:21:20.110Z,2.28
2023-03-25T05:23:46.845Z,1.38
2023-03-25T05:26:13.586Z,1.85
2023-03-25T05:28:41.425Z,2.03
2023-03-25T05:31:08.486Z,1.73
2023-03-25T05:33:43.328Z,1.20
2023-03-25T05:36:11.884Z,1.30
2023-03-25T05:38:41.741Z,1.52
2023-03-25T05:41:12.037Z,1.52
2023-03-25T05:43:38.686Z,2.10
2023-03-25T05:46:05.714Z,1.13
2023-03-25T05:48:32.957Z,1.60
2023-03-25T05:51:03.285Z,1.17
2023-03-25T05:53:30.887Z,1.35
2023-03-25T05:55:57.622Z,1.63
2023-03-25T05:58:25.099Z,1.90
2023-03-25T06:00:52.322Z,1.88
2023-03-25T06:03:20.940Z,2.03
2023-03-25T06:05:48.428Z,1.92
2023-03-25T06:08:17.125Z,1.88
2023-03-25T06:10:45.744Z,1.83
2023-03-25T06:13:12.426Z,1.80
2023-03-25T06:15:41.759Z,2.80
2023-03-25T06:18:10.524Z,2.13
2023-03-25T06:20:37.571Z,2.10
2023-03-25T06:23:04.210Z,2.15
2023-03-25T06:25:31.306Z,2.15
2023-03-25T06:28:01.827Z,2.53
2023-03-25T06:30:28.583Z,2.72
2023-03-25T06:32:55.655Z,1.95
2023-03-25T06:35:23.518Z,2.45
2023-03-25T06:37:50.315Z,2.10
2023-03-25T06:40:25.952Z,2.42
2023-03-25T06:42:53.065Z,2.47
2023-03-25T06:45:40.498Z,2.20
2023-03-25T06:48:13.745Z,1.65
2023-03-25T06:53:07.093Z,1.65
2023-03-25T06:55:33.774Z,2.22
2023-03-25T06:58:00.383Z,2.08
2023-03-25T07:00:28.372Z,2.33
2023-03-25T07:02:55.515Z,2.47
2023-03-25T07:05:22.230Z,2.20
2023-03-25T07:07:49.883Z,2.67
2023-03-25T07:10:16.599Z,2.58
2023-03-25T07:12:43.404Z,2.30
2023-03-25T07:15:10.331Z,2.38
2023-03-25T07:17:40.353Z,1.95
2023-03-25T07:20:09.106Z,2.10
2023-03-25T07:22:37.352Z,2.33
2023-03-25T07:25:04.296Z,2.17
2023-03-25T07:27:30.927Z,1.90
2023-03-25T07:30:05.122Z,1.50
2023-03-25T07:32:31.813Z,1.60
2023-03-25T07:34:58.518Z,2.10
2023-03-25T07:37:25.302Z,1.38
2023-03-25T07:39:51.932Z,1.90
2023-03-25T07:42:18.593Z,1.58
2023-03-25T07:45:20.725Z,1.80
2023-03-25T07:47:50.820Z,1.55
2023-03-25T07:50:18.775Z,2.20
2023-03-25T07:52:45.953Z,1.20
2023-03-25T07:55:13.170Z,1.48
2023-03-25T07:57:41.990Z,1.50
2023-03-25T08:00:10.747Z,1.52
2023-03-25T08:02:41.704Z,1.35
2023-03-25T08:05:09.022Z,1.52
2023-03-25T08:07:35.721Z,1.40
2023-03-25T08:10:02.631Z,1.45
2023-03-25T08:12:29.324Z,1.38
2023-03-25T08:14:55.964Z,1.20
2023-03-25T08:17:23.199Z,2.30
2023-03-25T08:19:49.844Z,1.52
2023-03-25T08:22:16.481Z,1.20
2023-03-25T08:24:43.128Z,1.83
2023-03-25T08:27:15.545Z,1.40
2023-03-25T08:29:43.883Z,2.10
2023-03-25T08:32:10.810Z,2.08
2023-03-25T08:34:40.038Z,2.00
2023-03-25T08:37:07.854Z,3.95
2023-03-25T08:39:39.804Z,1.95
2023-03-25T08:42:08.522Z,2.78
2023-03-25T08:44:35.629Z,1.50
2023-03-25T08:47:02.598Z,1.90
2023-03-25T08:49:29.385Z,1.58
2023-03-25T08:51:58.178Z,2.72
2023-03-25T08:54:26.089Z,1.88
2023-03-25T08:56:53.101Z,2.95
2023-03-25T08:59:20.475Z,2.00
2023-03-25T09:01:47.815Z,1.80
2023-03-25T09:04:14.546Z,2.55
2023-03-25T09:06:47.595Z,2.15
2023-03-25T09:09:16.383Z,2.40
2023-03-25T09:11:43.159Z,2.38
2023-03-25T09:14:09.861Z,2.85
2023-03-25T09:16:36.601Z,3.55
2023-03-25T09:19:03.452Z,2.30
2023-03-25T09:21:30.335Z,2.33
2023-03-25T09:23:57.083Z,2.35
2023-03-25T09:26:26.003Z,2.58
2023-03-25T09:28:55.353Z,2.63
2023-03-25T09:31:23.634Z,2.72
2023-03-25T09:33:50.434Z,2.67
2023-03-25T09:36:17.129Z,2.03
2023-03-25T09:38:44.093Z,3.15
2023-03-25T09:41:41.350Z,2.67
2023-03-25T09:45:11.991Z,2.17
2023-03-25T09:48:00.487Z,2.70
2023-03-25T09:50:30.408Z,1.88
2023-03-25T09:53:25.774Z,1.92
2023-03-25T09:55:53.105Z,1.80
2023-03-25T09:58:39.939Z,1.80
2023-03-25T10:01:33.485Z,2.40
2023-03-25T10:04:19.116Z,2.03
2023-03-25T10:07:04.729Z,2.10
2023-03-25T10:10:00.315Z,2.03
2023-03-25T10:12:43.522Z,1.75
2023-03-25T10:15:10.320Z,2.28
2023-03-25T10:18:27.837Z,1.90
2023-03-25T10:21:13.672Z,1.60
2023-03-25T10:23:55.193Z,1.60
2023-03-25T10:26:25.668Z,1.58
2023-03-25T10:28:58.033Z,1.92
2023-03-25T10:31:31.953Z,1.75
2023-03-25T10:34:05.206Z,2.00
2023-03-25T10:36:38.997Z,2.30
2023-03-25T10:39:18.873Z,1.92
2023-03-25T10:41:59.431Z,2.63
2023-03-25T10:44:27.340Z,2.03
2023-03-25T10:47:08.902Z,1.77
2023-03-25T10:49:37.093Z,1.83
2023-03-25T10:52:04.043Z,2.38
2023-03-25T10:54:37.863Z,2.30
2023-03-25T10:57:09.040Z,2.10
2023-03-25T10:59:45.240Z,1.90
2023-03-25T11:02:22.511Z,2.28
2023-03-25T11:04:52.876Z,1.90
2023-03-25T11:07:23.744Z,1.88
2023-03-25T11:09:51.727Z,1.60
2023-03-25T11:12:33.247Z,2.17
2023-03-25T11:15:18.392Z,1.80
2023-03-25T11:17:47.591Z,1.65
2023-03-25T11:20:27.040Z,1.50
2023-03-25T11:22:57.836Z,2.10
2023-03-25T11:25:31.504Z,1.70
2023-03-25T11:28:01.814Z,1.85
2023-03-25T11:30:28.783Z,2.40
2023-03-25T11:33:14.353Z,1.80
2023-03-25T11:35:44.450Z,1.83
2023-03-25T11:38:18.874Z,1.92
2023-03-25T11:40:55.373Z,2.20
2023-03-25T11:43:24.717Z,2.03
2023-03-25T11:45:52.169Z,1.85
2023-03-25T11:48:22.208Z,2.30
2023-03-25T11:50:54.928Z,1.52
2023-03-25T11:53:24.933Z,1.70
2023-03-25T11:55:55.335Z,2.63
2023-03-25T11:58:28.538Z,1.20
2023-03-25T12:01:05.077Z,1.50
2023-03-25T12:03:34.927Z,1.60
2023-03-25T12:06:12.324Z,2.25
2023-03-25T12:08:55.948Z,1.70
2023-03-25T12:11:28.806Z,1.48
2023-03-25T12:14:01.369Z,1.67
2023-03-25T12:16:52.238Z,1.33
2023-03-25T12:19:37.294Z,1.30
2023-03-25T12:22:29.329Z,1.38
2023-03-25T12:25:07.934Z,2.28
2023-03-25T12:27:49.202Z,1.50
2023-03-25T12:30:40.887Z,1.17
2023-03-25T12:33:28.169Z,1.30
2023-03-25T12:35:57.615Z,1.90
2023-03-25T12:38:47.324Z,1.63
2023-03-25T12:42:03.945Z,1.40
2023-03-25T12:45:04.154Z,1.40
2023-03-25T12:47:42.589Z,3.63
2023-03-25T12:50:22.865Z,1.45
2023-03-25T12:53:17.572Z,1.23
2023-03-25T12:55:54.536Z,1.45
2023-03-25T12:58:40.364Z,1.80
2023-03-25T13:01:49.607Z,1.73
2023-03-25T13:04:16.458Z,2.15
2023-03-25T13:06:59.175Z,2.20
2023-03-25T13:09:37.886Z,2.03
2023-03-25T13:12:34.783Z,2.17
2023-03-25T13:15:21.782Z,2.47
2023-03-25T13:17:58.813Z,1.60
2023-03-25T13:20:28.694Z,1.73
2023-03-25T13:23:01.608Z,1.77
2023-03-25T13:25:44.546Z,0.93
2023-03-25T13:28:16.535Z,1.27
2023-03-25T13:33:15.613Z,1.33
2023-03-25T13:35:52.469Z,1.30
2023-03-25T13:38:29.801Z,1.73
2023-03-25T13:41:28.726Z,1.70
2023-03-25T13:44:01.399Z,1.13
2023-03-25T13:46:38.175Z,1.17
2023-03-25T13:49:23.657Z,0.93
2023-03-25T13:51:50.318Z,1.23
2023-03-25T13:54:26.989Z,1.10
2023-03-25T13:57:11.940Z,1.67
2023-03-25T14:00:24.926Z,1.20
2023-03-25T14:03:21.239Z,2.03
2023-03-25T14:06:14.148Z,2.58
2023-03-25T14:08:55.876Z,1.20
2023-03-25T14:11:36.974Z,1.48
2023-03-25T14:14:10.487Z,1.48
2023-03-25T14:17:05.226Z,1.80
2023-03-25T14:19:38.731Z,1.33
2023-03-25T14:22:13.925Z,1.50
2023-03-25T14:24:41.604Z,1.30
2023-03-25T14:27:18.210Z,2.88
2023-03-25T14:29:52.467Z,1.67
2023-03-25T14:32:19.075Z,1.33
2023-03-25T14:34:49.294Z,1.60
2023-03-25T14:37:21.827Z,0.70
2023-03-25T14:39:49.234Z,1.08
2023-03-25T14:42:40.942Z,1.73
2023-03-25T14:45:42.172Z,1.50
2023-03-25T14:48:30.638Z,0.75
2023-03-25T14:51:25.596Z,2.03
2023-03-25T14:54:01.792Z,1.13
2023-03-25T14:56:42.362Z,2.00
2023-03-25T14:59:23.756Z,1.80
2023-03-25T15:01:52.004Z,1.55
2023-03-25T15:04:19.194Z,1.50
2023-03-25T15:06:46.800Z,1.40
2023-03-25T15:09:16.902Z,2.08
2023-03-25T15:11:58.226Z,1.90
2023-03-25T15:14:31.567Z,1.80
2023-03-25T15:17:02.599Z,2.00
2023-03-25T15:19:29.420Z,1.48
2023-03-25T15:22:00.245Z,1.30
2023-03-25T15:24:32.014Z,1.25
2023-03-25T15:27:02.237Z,1.10
2023-03-25T15:29:42.408Z,1.20
2023-03-25T15:32:53.329Z,1.38
2023-03-25T15:35:53.485Z,1.95
2023-03-25T15:38:50.618Z,1.73
2023-03-25T15:41:46.979Z,1.83
2023-03-25T15:44:43.937Z,1.42
2023-03-25T15:47:35.552Z,1.70
2023-03-25T15:50:10.922Z,1.27
2023-03-25T15:53:10.627Z,1.20
2023-03-25T15:55:47.972Z,1.10
2023-03-25T15:58:24.202Z,0.93
2023-03-25T16:00:57.041Z,1.77
2023-03-25T16:03:29.099Z,0.82
2023-03-25T16:06:00.587Z,0.90
2023-03-25T16:08:35.849Z,1.33
2023-03-25T16:11:20.693Z,0.93
2023-03-25T16:13:48.234Z,1.50
2023-03-25T16:16:17.273Z,1.30
2023-03-25T16:18:46.086Z,0.90
2023-03-25T16:21:12.920Z,0.68
2023-03-25T16:23:40.501Z,2.00
2023-03-25T16:26:07.269Z,1.38
2023-03-25T16:28:39.946Z,0.50
2023-03-25T16:31:14.071Z,0.70
2023-03-25T16:33:41.191Z,1.45
2023-03-25T16:36:16.723Z,1.23
2023-03-25T16:38:43.779Z,1.10
2023-03-25T16:41:15.028Z,1.08
2023-03-25T16:43:42.445Z,1.30
2023-03-25T16:46:11.664Z,0.98
2023-03-25T16:48:47.484Z,1.00
2023-03-25T16:51:35.198Z,0.75
2023-03-25T16:54:09.793Z,1.30
2023-03-25T16:56:37.802Z,1.48
2023-03-25T16:59:25.978Z,1.00
2023-03-25T17:01:58.182Z,0.88
2023-03-25T17:04:44.586Z,0.65
2023-03-25T17:07:20.655Z,0.52
2023-03-25T17:09:52.701Z,1.20
2023-03-25T17:14:50.088Z,0.60
2023-03-25T17:17:22.715Z,1.02
2023-03-25T17:19:52.221Z,0.50
2023-03-25T17:22:38.414Z,0.38
2023-03-25T17:25:24.109Z,0.82
2023-03-25T17:27:59.368Z,1.08
2023-03-25T17:30:28.848Z,0.73
2023-03-25T17:33:31.437Z,1.10
2023-03-25T17:35:58.194Z,1.20
2023-03-25T17:38:46.106Z,2.40
2023-03-25T17:41:15.959Z,1.23
2023-03-25T17:43:48.672Z,1.10
2023-03-25T17:46:24.582Z,0.90
2023-03-25T17:48:53.323Z,1.67
2023-03-25T17:51:21.328Z,1.60
2023-03-25T17:53:49.278Z,1.98
2023-03-25T17:56:21.006Z,0.77
2023-03-25T17:58:47.753Z,0.80
2023-03-25T18:01:14.708Z,0.60
2023-03-25T18:03:41.502Z,0.90
2023-03-25T18:06:08.566Z,0.60
2023-03-25T18:08:35.424Z,0.75
2023-03-25T18:11:02.314Z,1.00
2023-03-25T18:13:29.374Z,0.30
2023-03-25T18:15:56.144Z,0.52
2023-03-25T18:18:26.132Z,1.02
2023-03-25T18:20:55.917Z,0.22
2023-03-25T18:23:23.211Z,0.55
2023-03-25T18:25:50.066Z,0.60
2023-03-25T18:28:17.128Z,1.42
2023-03-25T18:30:50.943Z,0.75
2023-03-25T18:33:18.384Z,0.80
2023-03-25T18:35:46.940Z,0.50
2023-03-25T18:38:19.417Z,0.70
2023-03-25T18:40:47.925Z,0.77
2023-03-25T18:43:15.587Z,1.27
2023-03-25T18:45:42.979Z,1.05
2023-03-25T18:48:21.136Z,0.70
2023-03-25T18:50:59.286Z,0.90
2023-03-25T18:53:28.923Z,0.85
2023-03-25T18:56:01.703Z,0.93
2023-03-25T18:58:31.394Z,1.20
2023-03-25T19:00:59.255Z,0.70
2023-03-25T19:03:38.617Z,0.85
2023-03-25T19:06:11.671Z,1.48
2023-03-25T19:08:40.150Z,1.30
2023-03-25T19:11:19.826Z,1.90
2023-03-25T19:13:50.060Z,0.90
2023-03-25T19:16:17.289Z,0.70
2023-03-25T19:18:44.392Z,1.50
2023-03-25T19:21:16.211Z,1.10
2023-03-25T19:23:43.475Z,0.98
2023-03-25T19:26:10.348Z,1.27
2023-03-25T19:28:37.313Z,1.35
2023-03-25T19:31:04.623Z,1.10
2023-03-25T19:33:32.026Z,1.13
2023-03-25T19:36:01.745Z,1.10
2023-03-25T19:38:30.211Z,0.82
2023-03-25T19:41:06.930Z,0.95
2023-03-25T19:43:34.179Z,0.90
2023-03-25T19:46:01.488Z,1.00
2023-03-25T19:48:30.007Z,1.08
2023-03-25T19:50:57.918Z,0.88
2023-03-25T19:53:26.565Z,1.10
2023-03-25T19:55:55.237Z,0.88
2023-03-25T19:58:23.194Z,0.95
2023-03-25T20:00:51.602Z,1.20
2023-03-25T20:03:24.046Z,1.50
2023-03-25T20:05:57.668Z,1.55
2023-03-25T20:08:25.921Z,0.80
2023-03-25T20:10:53.221Z,0.73
2023-03-25T20:13:20.969Z,0.88
2023-03-25T20:15:52.619Z,1.15
2023-03-25T20:18:20.174Z,1.13
2023-03-25T20:20:47.652Z,1.02
2023-03-25T20:23:14.692Z,1.58
2023-03-25T20:25:41.892Z,0.77
2023-03-25T20:28:08.897Z,0.95
2023-03-25T20:30:36.266Z,0.82
2023-03-25T20:33:03.942Z,0.65
2023-03-25T20:35:31.810Z,1.08
2023-03-25T20:37:58.881Z,1.33
2023-03-25T20:40:37.411Z,0.80
2023-03-25T20:43:08.791Z,0.80
2023-03-25T20:45:35.618Z,1.10
2023-03-25T20:48:02.302Z,1.27
2023-03-25T20:50:29.021Z,0.93
2023-03-25T20:52:55.759Z,0.98
2023-03-25T20:55:22.371Z,1.05
2023-03-25T20:57:48.990Z,1.38
2023-03-25T21:00:18.138Z,0.82
2023-03-25T21:02:45.440Z,1.17
2023-03-25T21:05:12.229Z,0.95
2023-03-25T21:07:41.076Z,1.08
2023-03-25T21:10:08.690Z,1.27
2023-03-25T21:12:43.913Z,0.80
2023-03-25T21:15:14.402Z,1.17
2023-03-25T21:17:42.066Z,1.10
2023-03-25T21:20:09.620Z,1.10
2023-03-25T21:22:42.911Z,1.70
2023-03-25T21:25:10.018Z,1.13
2023-03-25T21:27:38.015Z,1.25
2023-03-25T21:30:07.489Z,1.40
2023-03-25T21:32:34.207Z,1.20
2023-03-25T21:35:00.875Z,1.58
2023-03-25T21:37:28.876Z,1.70
2023-03-25T21:39:57.911Z,1.98
2023-03-25T21:42:24.753Z,1.30
2023-03-25T21:44:51.449Z,1.40
2023-03-25T21:47:18.223Z,1.25
2023-03-25T21:49:44.929Z,1.73
2023-03-25T21:52:12.963Z,1.50
2023-03-25T21:54:43.319Z,1.50
2023-03-25T21:57:11.282Z,1.73
2023-03-25T21:59:38.304Z,1.70
2023-03-25T22:02:05.817Z,1.23
2023-03-25T22:04:33.820Z,2.00
2023-03-25T22:07:00.905Z,1.10
2023-03-25T22:09:27.644Z,1.50
2023-03-25T22:11:54.363Z,1.55
2023-03-25T22:14:21.044Z,1.50
2023-03-25T22:16:47.698Z,1.55
2023-03-25T22:19:14.359Z,1.52
2023-03-25T22:21:41.118Z,1.30
2023-03-25T22:24:08.908Z,1.20
2023-03-25T22:26:39.103Z,1.20
2023-03-25T22:29:08.034Z,1.20
2023-03-25T22:31:39.560Z,1.10
2023-03-25T22:34:15.728Z,1.63
2023-03-25T22:36:49.468Z,1.50
2023-03-25T22:39:18.316Z,1.60
2023-03-25T22:41:45.666Z,1.25
2023-03-25T22:44:14.833Z,1.80
2023-03-25T22:46:41.579Z,2.17
2023-03-25T22:49:08.246Z,2.22
2023-03-25T22:51:34.887Z,1.70
2023-03-25T22:54:01.540Z,1.60
2023-03-25T22:56:33.670Z,2.05
2023-03-25T22:59:05.756Z,2.70
2023-03-25T23:04:00.103Z,2.55
2023-03-25T23:06:27.384Z,1.92
2023-03-25T23:08:57.846Z,1.77
2023-03-25T23:11:28.194Z,2.20
2023-03-25T23:13:58.037Z,1.80
2023-03-25T23:16:27.691Z,2.00
2023-03-25T23:18:54.401Z,1.85
2023-03-25T23:21:25.350Z,2.53
2023-03-25T23:23:54.211Z,2.58
2023-03-25T23:26:24.776Z,2.10
2023-03-25T23:28:53.518Z,2.00
2023-03-25T23:31:29.127Z,2.08
2023-03-25T23:33:57.802Z,1.92
2023-03-25T23:36:26.099Z,2.60
2023-03-25T23:38:53.603Z,3.05
2023-03-25T23:41:22.727Z,2.40
2023-03-25T23:43:53.748Z,2.17
2023-03-25T23:46:21.873Z,2.63
2023-03-25T23:48:49.343Z,2.67
2023-03-25T23:51:20.365Z,2.28
2023-03-25T23:53:49.315Z,2.27
2023-03-25T23:56:18.368Z,2.42
2023-03-25T23:58:45.428Z,2.80
